createdAt,value
2022-12-13T00:08:33.013Z,-4.3
2022-12-13T00:23:07.711Z,-4.9
2022-12-13T00:37:37.723Z,-4.6
2022-12-13T00:52:13.153Z,-4.6
2022-12-13T01:06:45.275Z,-3.9
2022-12-13T01:21:18.075Z,-4.1
2022-12-13T01:35:51.563Z,-4.1
2022-12-13T01:50:23.040Z,-4.1
2022-12-13T02:04:55.769Z,-4.5
2022-12-13T02:19:28.342Z,-4.8
2022-12-13T02:33:58.789Z,-4.8
2022-12-13T02:48:32.440Z,-4.9
2022-12-13T03:03:06.883Z,-5
2022-12-13T03:17:37.279Z,-5.5
2022-12-13T03:32:11.835Z,-5.2
2022-12-13T03:46:43.649Z,-5.3
2022-12-13T04:01:15.181Z,-5.6
2022-12-13T04:15:46.524Z,-5.9
2022-12-13T04:30:17.839Z,-5.6
2022-12-13T04:44:51.179Z,-5.8
2022-12-13T04:59:23.851Z,-6.1
2022-12-13T05:13:56.242Z,-6
2022-12-13T05:28:29.564Z,-6.1
2022-12-13T05:43:02.608Z,-6
2022-12-13T05:57:34.656Z,-6.5
2022-12-13T06:12:33.155Z,-6.8
2022-12-13T06:26:53.345Z,-7
2022-12-13T06:41:32.638Z,-7.1
2022-12-13T06:55:58.410Z,-7.2
2022-12-13T07:10:31.499Z,-6.9
2022-12-13T07:25:03.532Z,-7
2022-12-13T07:39:35.437Z,-7.3
2022-12-13T07:54:07.652Z,-6.9
2022-12-13T08:08:43.451Z,-6.4
2022-12-13T08:23:14.581Z,-5.9
2022-12-13T08:37:48.770Z,-5.6
2022-12-13T08:52:21.639Z,-5.2
2022-12-13T09:07:02.355Z,-4.9
2022-12-13T09:21:43.521Z,-4.6
2022-12-13T09:36:13.017Z,-5
2022-12-13T09:51:28.530Z,-4.4
2022-12-13T10:05:50.495Z,-4.1
2022-12-13T10:20:24.339Z,-3.8
2022-12-13T10:34:56.643Z,-3.3
2022-12-13T10:49:30.000Z,-3.2
2022-12-13T11:04:04.084Z,-2.8
2022-12-13T11:18:39.864Z,-2.7
2022-12-13T11:33:11.631Z,-2.9
2022-12-13T11:47:43.789Z,-2.6
2022-12-13T12:02:18.794Z,-2.4
2022-12-13T12:16:50.040Z,-2.7
2022-12-13T12:31:23.892Z,-2.7
2022-12-13T12:45:58.473Z,-3.1
2022-12-13T13:00:32.719Z,-2.8
2022-12-13T13:15:04.270Z,-3.2
2022-12-13T13:29:37.794Z,-3.1
2022-12-13T13:44:11.601Z,-3.2
2022-12-13T13:58:48.626Z,-3.3
2022-12-13T14:13:19.499Z,-3.6
2022-12-13T14:27:52.259Z,-3.4
2022-12-13T14:42:24.172Z,-3.2
2022-12-13T14:56:55.450Z,-3.4
2022-12-13T15:11:27.454Z,-3.9
2022-12-13T15:26:01.743Z,-3.6
2022-12-13T15:40:35.721Z,-4.1
2022-12-13T15:55:05.616Z,-3.8
2022-12-13T16:09:40.249Z,-4.1
2022-12-13T16:24:13.866Z,-4.1
2022-12-13T16:38:44.070Z,-4.2
2022-12-13T16:53:24.853Z,-4.1
2022-12-13T17:07:51.911Z,-4.4
2022-12-13T17:22:24.693Z,-4.7
2022-12-13T17:36:56.589Z,-4.8
2022-12-13T17:51:28.541Z,-4.8
2022-12-13T18:06:00.933Z,-4.5
2022-12-13T18:20:33.378Z,-4.6
2022-12-13T18:35:07.128Z,-4.6
2022-12-13T18:49:38.732Z,-4.7
2022-12-13T19:04:10.939Z,-4.8
2022-12-13T19:18:42.909Z,-4.6
2022-12-13T19:33:14.826Z,-4.7
2022-12-13T19:47:49.264Z,-4.8
2022-12-13T20:02:22.727Z,-5.1
2022-12-13T20:16:55.097Z,-5.1
2022-12-13T20:31:26.062Z,-5.1
2022-12-13T20:45:57.650Z,-5.5
2022-12-13T21:00:30.279Z,-5.5
2022-12-13T21:15:03.694Z,-5.9
2022-12-13T21:29:35.904Z,-5.7
2022-12-13T21:44:08.506Z,-5.8
2022-12-13T21:58:40.369Z,-5.6
2022-12-13T22:13:14.394Z,-5.7
2022-12-13T22:27:44.443Z,-5.7
2022-12-13T22:42:16.774Z,-5.6
2022-12-13T22:56:47.242Z,-5.6
2022-12-13T23:11:21.108Z,-5.8
2022-12-13T23:25:55.867Z,-5.5
2022-12-13T23:40:26.825Z,-5.5
2022-12-13T23:54:59.401Z,-5.5
